sensor_id;sensor_type;location;lat;lon;timestamp;P1;durP1;ratioP1;P2;durP2;ratioP2
52530;SDS011;38441;52.894;6.040;2023-04-24T00:05:38;2.38;;;1.83;;
52530;SDS011;38441;52.894;6.040;2023-04-24T00:10:41;2.40;;;1.60;;
52530;SDS011;38441;52.894;6.040;2023-04-24T00:13:07;2.45;;;1.27;;
52530;SDS011;38441;52.894;6.040;2023-04-24T00:15:33;3.22;;;1.60;;
52530;SDS011;38441;52.894;6.040;2023-04-24T00:20:37;1.80;;;1.40;;
52530;SDS011;38441;52.894;6.040;2023-04-24T00:23:05;1.95;;;1.40;;
52530;SDS011;38441;52.894;6.040;2023-04-24T00:25:31;2.08;;;1.38;;
52530;SDS011;38441;52.894;6.040;2023-04-24T00:30:32;1.80;;;1.05;;
52530;SDS011;38441;52.894;6.040;2023-04-24T00:32:58;1.90;;;1.08;;
52530;SDS011;38441;52.894;6.040;2023-04-24T00:53:50;1.33;;;1.00;;
52530;SDS011;38441;52.894;6.040;2023-04-24T00:58:52;1.92;;;1.42;;
52530;SDS011;38441;52.894;6.040;2023-04-24T01:01:21;3.03;;;1.50;;
52530;SDS011;38441;52.894;6.040;2023-04-24T01:03:51;1.42;;;1.25;;
52530;SDS011;38441;52.894;6.040;2023-04-24T01:06:18;1.60;;;1.50;;
52530;SDS011;38441;52.894;6.040;2023-04-24T01:08:45;2.58;;;1.60;;
52530;SDS011;38441;52.894;6.040;2023-04-24T01:11:13;2.78;;;1.73;;
52530;SDS011;38441;52.894;6.040;2023-04-24T01:13:39;2.83;;;1.75;;
52530;SDS011;38441;52.894;6.040;2023-04-24T01:16:06;3.63;;;2.15;;
52530;SDS011;38441;52.894;6.040;2023-04-24T01:18:32;2.55;;;2.13;;
52530;SDS011;38441;52.894;6.040;2023-04-24T01:20:58;3.30;;;1.90;;
52530;SDS011;38441;52.894;6.040;2023-04-24T01:23:25;3.00;;;2.10;;
52530;SDS011;38441;52.894;6.040;2023-04-24T01:25:51;2.70;;;2.10;;
52530;SDS011;38441;52.894;6.040;2023-04-24T01:28:17;3.47;;;2.20;;
52530;SDS011;38441;52.894;6.040;2023-04-24T01:30:43;2.40;;;2.00;;
52530;SDS011;38441;52.894;6.040;2023-04-24T01:33:09;5.80;;;2.30;;
52530;SDS011;38441;52.894;6.040;2023-04-24T01:35:35;3.33;;;2.58;;
52530;SDS011;38441;52.894;6.040;2023-04-24T01:38:02;4.13;;;2.75;;
52530;SDS011;38441;52.894;6.040;2023-04-24T01:40:31;3.30;;;2.58;;
52530;SDS011;38441;52.894;6.040;2023-04-24T01:42:58;3.97;;;2.70;;
52530;SDS011;38441;52.894;6.040;2023-04-24T01:45:25;6.13;;;2.90;;
52530;SDS011;38441;52.894;6.040;2023-04-24T01:47:51;3.33;;;2.80;;
52530;SDS011;38441;52.894;6.040;2023-04-24T01:50:17;4.70;;;3.45;;
52530;SDS011;38441;52.894;6.040;2023-04-24T01:52:46;5.10;;;3.33;;
52530;SDS011;38441;52.894;6.040;2023-04-24T01:55:19;4.10;;;3.38;;
52530;SDS011;38441;52.894;6.040;2023-04-24T01:57:55;4.80;;;4.25;;
52530;SDS011;38441;52.894;6.040;2023-04-24T02:00:52;4.30;;;3.58;;
52530;SDS011;38441;52.894;6.040;2023-04-24T02:03:17;5.80;;;4.57;;
52530;SDS011;38441;52.894;6.040;2023-04-24T02:05:44;5.05;;;4.25;;
52530;SDS011;38441;52.894;6.040;2023-04-24T02:08:10;4.68;;;4.07;;
52530;SDS011;38441;52.894;6.040;2023-04-24T02:10:36;5.72;;;4.45;;
52530;SDS011;38441;52.894;6.040;2023-04-24T02:13:02;5.22;;;4.60;;
52530;SDS011;38441;52.894;6.040;2023-04-24T02:15:29;6.55;;;5.13;;
52530;SDS011;38441;52.894;6.040;2023-04-24T02:17:56;6.55;;;5.05;;
52530;SDS011;38441;52.894;6.040;2023-04-24T02:20:22;7.13;;;5.10;;
52530;SDS011;38441;52.894;6.040;2023-04-24T02:22:48;7.82;;;5.70;;
52530;SDS011;38441;52.894;6.040;2023-04-24T02:25:14;7.85;;;6.20;;
52530;SDS011;38441;52.894;6.040;2023-04-24T02:27:40;7.20;;;6.15;;
52530;SDS011;38441;52.894;6.040;2023-04-24T02:30:06;8.27;;;6.35;;
52530;SDS011;38441;52.894;6.040;2023-04-24T02:32:39;7.45;;;6.10;;
52530;SDS011;38441;52.894;6.040;2023-04-24T02:35:26;6.97;;;6.28;;
52530;SDS011;38441;52.894;6.040;2023-04-24T02:40:27;7.43;;;6.35;;
52530;SDS011;38441;52.894;6.040;2023-04-24T02:42:53;7.55;;;6.30;;
52530;SDS011;38441;52.894;6.040;2023-04-24T03:44:51;8.82;;;7.72;;
52530;SDS011;38441;52.894;6.040;2023-04-24T03:47:18;9.63;;;7.72;;
52530;SDS011;38441;52.894;6.040;2023-04-24T03:49:43;10.02;;;8.00;;
52530;SDS011;38441;52.894;6.040;2023-04-24T03:52:09;9.20;;;7.82;;
52530;SDS011;38441;52.894;6.040;2023-04-24T03:54:36;8.45;;;6.32;;
52530;SDS011;38441;52.894;6.040;2023-04-24T03:57:02;6.57;;;4.50;;
52530;SDS011;38441;52.894;6.040;2023-04-24T03:59:29;4.53;;;3.25;;
52530;SDS011;38441;52.894;6.040;2023-04-24T04:01:55;3.72;;;2.70;;
52530;SDS011;38441;52.894;6.040;2023-04-24T04:04:22;4.15;;;2.95;;
52530;SDS011;38441;52.894;6.040;2023-04-24T04:06:58;3.10;;;2.30;;
52530;SDS011;38441;52.894;6.040;2023-04-24T04:09:26;3.58;;;2.58;;
52530;SDS011;38441;52.894;6.040;2023-04-24T04:11:52;4.40;;;3.20;;
52530;SDS011;38441;52.894;6.040;2023-04-24T04:14:19;4.10;;;3.05;;
52530;SDS011;38441;52.894;6.040;2023-04-24T04:16:47;4.95;;;4.00;;
52530;SDS011;38441;52.894;6.040;2023-04-24T04:19:15;5.25;;;3.92;;
52530;SDS011;38441;52.894;6.040;2023-04-24T04:21:41;5.40;;;4.00;;
52530;SDS011;38441;52.894;6.040;2023-04-24T04:24:07;5.38;;;3.92;;
52530;SDS011;38441;52.894;6.040;2023-04-24T04:26:34;6.53;;;4.07;;
52530;SDS011;38441;52.894;6.040;2023-04-24T04:29:02;6.05;;;4.88;;
52530;SDS011;38441;52.894;6.040;2023-04-24T04:31:29;5.80;;;4.93;;
52530;SDS011;38441;52.894;6.040;2023-04-24T04:33:55;6.20;;;4.20;;
52530;SDS011;38441;52.894;6.040;2023-04-24T04:36:24;4.50;;;3.58;;
52530;SDS011;38441;52.894;6.040;2023-04-24T04:38:51;4.47;;;3.25;;
52530;SDS011;38441;52.894;6.040;2023-04-24T04:41:17;4.63;;;3.28;;
52530;SDS011;38441;52.894;6.040;2023-04-24T04:43:45;3.75;;;2.70;;
52530;SDS011;38441;52.894;6.040;2023-04-24T04:46:41;5.72;;;2.85;;
52530;SDS011;38441;52.894;6.040;2023-04-24T04:49:08;5.22;;;3.28;;
52530;SDS011;38441;52.894;6.040;2023-04-24T04:51:38;5.30;;;3.60;;
52530;SDS011;38441;52.894;6.040;2023-04-24T04:54:09;5.47;;;3.75;;
52530;SDS011;38441;52.894;6.040;2023-04-24T04:56:35;5.35;;;4.20;;
52530;SDS011;38441;52.894;6.040;2023-04-24T04:59:01;4.97;;;4.00;;
52530;SDS011;38441;52.894;6.040;2023-04-24T05:01:27;5.50;;;3.50;;
52530;SDS011;38441;52.894;6.040;2023-04-24T05:03:54;6.25;;;3.88;;
52530;SDS011;38441;52.894;6.040;2023-04-24T05:06:23;4.47;;;3.53;;
52530;SDS011;38441;52.894;6.040;2023-04-24T05:08:54;4.50;;;3.10;;
52530;SDS011;38441;52.894;6.040;2023-04-24T05:11:23;4.00;;;2.92;;
52530;SDS011;38441;52.894;6.040;2023-04-24T05:14:06;4.25;;;3.25;;
52530;SDS011;38441;52.894;6.040;2023-04-24T05:16:34;3.97;;;2.92;;
52530;SDS011;38441;52.894;6.040;2023-04-24T05:19:02;3.92;;;2.60;;
52530;SDS011;38441;52.894;6.040;2023-04-24T05:21:32;4.70;;;1.90;;
52530;SDS011;38441;52.894;6.040;2023-04-24T05:26:44;5.03;;;2.03;;
52530;SDS011;38441;52.894;6.040;2023-04-24T05:29:13;3.40;;;1.95;;
52530;SDS011;38441;52.894;6.040;2023-04-24T05:31:39;3.00;;;1.65;;
52530;SDS011;38441;52.894;6.040;2023-04-24T05:34:09;1.60;;;1.23;;
52530;SDS011;38441;52.894;6.040;2023-04-24T05:36:36;3.47;;;1.60;;
52530;SDS011;38441;52.894;6.040;2023-04-24T05:39:04;1.95;;;1.45;;
52530;SDS011;38441;52.894;6.040;2023-04-24T05:41:30;3.47;;;1.90;;
52530;SDS011;38441;52.894;6.040;2023-04-24T05:43:56;4.00;;;1.98;;
52530;SDS011;38441;52.894;6.040;2023-04-24T05:46:22;4.28;;;1.77;;
52530;SDS011;38441;52.894;6.040;2023-04-24T05:48:48;4.95;;;2.03;;
52530;SDS011;38441;52.894;6.040;2023-04-24T05:51:15;4.03;;;2.15;;
52530;SDS011;38441;52.894;6.040;2023-04-24T05:53:41;4.10;;;2.03;;
52530;SDS011;38441;52.894;6.040;2023-04-24T05:56:07;5.05;;;2.92;;
52530;SDS011;38441;52.894;6.040;2023-04-24T05:58:33;6.93;;;3.08;;
52530;SDS011;38441;52.894;6.040;2023-04-24T06:01:01;5.07;;;3.30;;
52530;SDS011;38441;52.894;6.040;2023-04-24T06:03:27;6.30;;;3.35;;
52530;SDS011;38441;52.894;6.040;2023-04-24T06:05:54;5.82;;;3.97;;
52530;SDS011;38441;52.894;6.040;2023-04-24T06:08:20;5.13;;;3.40;;
52530;SDS011;38441;52.894;6.040;2023-04-24T06:10:46;6.65;;;3.92;;
52530;SDS011;38441;52.894;6.040;2023-04-24T06:13:12;6.25;;;4.25;;
52530;SDS011;38441;52.894;6.040;2023-04-24T06:15:38;7.75;;;4.00;;
52530;SDS011;38441;52.894;6.040;2023-04-24T06:18:05;5.43;;;3.55;;
52530;SDS011;38441;52.894;6.040;2023-04-24T06:20:32;6.72;;;3.70;;
52530;SDS011;38441;52.894;6.040;2023-04-24T06:22:58;6.10;;;2.90;;
52530;SDS011;38441;52.894;6.040;2023-04-24T06:25:25;5.82;;;3.10;;
52530;SDS011;38441;52.894;6.040;2023-04-24T06:27:51;7.28;;;3.40;;
52530;SDS011;38441;52.894;6.040;2023-04-24T06:30:18;6.88;;;3.03;;
52530;SDS011;38441;52.894;6.040;2023-04-24T06:32:44;5.20;;;3.00;;
52530;SDS011;38441;52.894;6.040;2023-04-24T06:35:10;4.97;;;2.78;;
52530;SDS011;38441;52.894;6.040;2023-04-24T06:37:38;4.70;;;2.58;;
52530;SDS011;38441;52.894;6.040;2023-04-24T06:40:05;2.90;;;2.03;;
52530;SDS011;38441;52.894;6.040;2023-04-24T06:42:31;3.90;;;2.17;;
52530;SDS011;38441;52.894;6.040;2023-04-24T06:44:57;3.17;;;2.05;;
52530;SDS011;38441;52.894;6.040;2023-04-24T06:47:23;2.53;;;1.33;;
52530;SDS011;38441;52.894;6.040;2023-04-24T06:49:49;4.60;;;1.90;;
52530;SDS011;38441;52.894;6.040;2023-04-24T06:52:17;2.65;;;1.40;;
52530;SDS011;38441;52.894;6.040;2023-04-24T06:54:43;4.32;;;1.70;;
52530;SDS011;38441;52.894;6.040;2023-04-24T06:57:09;5.25;;;2.65;;
52530;SDS011;38441;52.894;6.040;2023-04-24T06:59:35;2.38;;;1.48;;
52530;SDS011;38441;52.894;6.040;2023-04-24T07:02:02;4.28;;;1.30;;
52530;SDS011;38441;52.894;6.040;2023-04-24T07:04:28;4.78;;;1.45;;
52530;SDS011;38441;52.894;6.040;2023-04-24T07:06:55;3.13;;;1.70;;
52530;SDS011;38441;52.894;6.040;2023-04-24T07:09:23;14.30;;;9.65;;
52530;SDS011;38441;52.894;6.040;2023-04-24T07:11:50;5.53;;;2.90;;
52530;SDS011;38441;52.894;6.040;2023-04-24T07:14:16;10.60;;;5.00;;
52530;SDS011;38441;52.894;6.040;2023-04-24T07:16:44;10.00;;;4.97;;
52530;SDS011;38441;52.894;6.040;2023-04-24T07:19:10;13.07;;;6.55;;
52530;SDS011;38441;52.894;6.040;2023-04-24T07:21:36;12.98;;;6.75;;
52530;SDS011;38441;52.894;6.040;2023-04-24T07:24:02;19.73;;;12.25;;
52530;SDS011;38441;52.894;6.040;2023-04-24T07:26:29;12.63;;;8.60;;
52530;SDS011;38441;52.894;6.040;2023-04-24T07:28:55;16.58;;;9.02;;
52530;SDS011;38441;52.894;6.040;2023-04-24T07:31:21;17.33;;;9.73;;
52530;SDS011;38441;52.894;6.040;2023-04-24T07:33:48;22.33;;;10.48;;
52530;SDS011;38441;52.894;6.040;2023-04-24T07:36:15;23.40;;;10.88;;
52530;SDS011;38441;52.894;6.040;2023-04-24T07:38:45;15.75;;;9.70;;
52530;SDS011;38441;52.894;6.040;2023-04-24T07:41:14;15.32;;;9.77;;
52530;SDS011;38441;52.894;6.040;2023-04-24T07:43:40;16.67;;;9.10;;
52530;SDS011;38441;52.894;6.040;2023-04-24T07:46:06;19.65;;;10.15;;
52530;SDS011;38441;52.894;6.040;2023-04-24T07:48:33;14.60;;;8.90;;
52530;SDS011;38441;52.894;6.040;2023-04-24T07:50:59;17.52;;;11.15;;
52530;SDS011;38441;52.894;6.040;2023-04-24T07:53:25;18.63;;;10.40;;
52530;SDS011;38441;52.894;6.040;2023-04-24T07:55:58;20.75;;;11.40;;
52530;SDS011;38441;52.894;6.040;2023-04-24T07:58:24;19.52;;;12.50;;
52530;SDS011;38441;52.894;6.040;2023-04-24T08:00:53;20.20;;;12.38;;
52530;SDS011;38441;52.894;6.040;2023-04-24T08:03:18;20.80;;;11.60;;
52530;SDS011;38441;52.894;6.040;2023-04-24T08:05:48;16.23;;;10.75;;
52530;SDS011;38441;52.894;6.040;2023-04-24T08:08:16;20.15;;;10.05;;
52530;SDS011;38441;52.894;6.040;2023-04-24T08:10:42;23.05;;;11.88;;
52530;SDS011;38441;52.894;6.040;2023-04-24T08:13:08;17.20;;;10.43;;
52530;SDS011;38441;52.894;6.040;2023-04-24T08:15:36;16.55;;;9.98;;
52530;SDS011;38441;52.894;6.040;2023-04-24T08:18:02;15.68;;;9.25;;
52530;SDS011;38441;52.894;6.040;2023-04-24T08:20:28;16.08;;;8.73;;
52530;SDS011;38441;52.894;6.040;2023-04-24T08:22:55;13.05;;;7.93;;
52530;SDS011;38441;52.894;6.040;2023-04-24T08:25:21;12.00;;;8.10;;
52530;SDS011;38441;52.894;6.040;2023-04-24T08:27:51;10.70;;;6.88;;
52530;SDS011;38441;52.894;6.040;2023-04-24T08:30:17;13.98;;;7.07;;
52530;SDS011;38441;52.894;6.040;2023-04-24T08:32:43;11.73;;;7.10;;
52530;SDS011;38441;52.894;6.040;2023-04-24T08:35:10;10.57;;;6.03;;
52530;SDS011;38441;52.894;6.040;2023-04-24T08:37:36;10.85;;;6.13;;
52530;SDS011;38441;52.894;6.040;2023-04-24T08:40:03;10.77;;;6.63;;
52530;SDS011;38441;52.894;6.040;2023-04-24T08:42:36;13.77;;;5.85;;
52530;SDS011;38441;52.894;6.040;2023-04-24T08:45:02;10.82;;;6.07;;
52530;SDS011;38441;52.894;6.040;2023-04-24T08:47:31;12.82;;;5.63;;
52530;SDS011;38441;52.894;6.040;2023-04-24T08:50:02;12.27;;;6.03;;
52530;SDS011;38441;52.894;6.040;2023-04-24T08:52:31;10.38;;;5.40;;
52530;SDS011;38441;52.894;6.040;2023-04-24T08:54:58;9.15;;;4.80;;
52530;SDS011;38441;52.894;6.040;2023-04-24T08:57:28;11.15;;;5.93;;
52530;SDS011;38441;52.894;6.040;2023-04-24T08:59:58;11.40;;;4.63;;
52530;SDS011;38441;52.894;6.040;2023-04-24T09:02:25;13.02;;;5.28;;
52530;SDS011;38441;52.894;6.040;2023-04-24T09:04:51;8.40;;;4.82;;
52530;SDS011;38441;52.894;6.040;2023-04-24T09:07:18;8.73;;;4.63;;
52530;SDS011;38441;52.894;6.040;2023-04-24T09:09:46;8.60;;;4.13;;
52530;SDS011;38441;52.894;6.040;2023-04-24T09:12:13;11.98;;;5.32;;
52530;SDS011;38441;52.894;6.040;2023-04-24T09:14:39;8.02;;;4.07;;
52530;SDS011;38441;52.894;6.040;2023-04-24T09:17:09;10.00;;;3.92;;
52530;SDS011;38441;52.894;6.040;2023-04-24T09:19:35;6.80;;;3.33;;
52530;SDS011;38441;52.894;6.040;2023-04-24T09:22:05;6.13;;;3.30;;
52530;SDS011;38441;52.894;6.040;2023-04-24T09:24:34;8.13;;;3.20;;
52530;SDS011;38441;52.894;6.040;2023-04-24T09:27:00;5.32;;;3.10;;
52530;SDS011;38441;52.894;6.040;2023-04-24T09:29:27;5.75;;;3.00;;
52530;SDS011;38441;52.894;6.040;2023-04-24T09:31:53;8.98;;;3.72;;
52530;SDS011;38441;52.894;6.040;2023-04-24T09:34:23;10.32;;;3.28;;
52530;SDS011;38441;52.894;6.040;2023-04-24T09:36:50;12.83;;;3.63;;
52530;SDS011;38441;52.894;6.040;2023-04-24T09:39:16;8.82;;;3.25;;
52530;SDS011;38441;52.894;6.040;2023-04-24T09:41:48;11.80;;;3.20;;
52530;SDS011;38441;52.894;6.040;2023-04-24T09:44:16;8.07;;;3.17;;
52530;SDS011;38441;52.894;6.040;2023-04-24T09:46:49;7.90;;;3.00;;
52530;SDS011;38441;52.894;6.040;2023-04-24T09:49:25;12.48;;;3.10;;
52530;SDS011;38441;52.894;6.040;2023-04-24T09:51:52;9.60;;;2.92;;
52530;SDS011;38441;52.894;6.040;2023-04-24T09:54:35;10.20;;;2.90;;
52530;SDS011;38441;52.894;6.040;2023-04-24T09:57:04;8.27;;;2.17;;
52530;SDS011;38441;52.894;6.040;2023-04-24T09:59:30;8.77;;;2.50;;
52530;SDS011;38441;52.894;6.040;2023-04-24T10:01:56;7.47;;;2.45;;
52530;SDS011;38441;52.894;6.040;2023-04-24T10:04:24;10.77;;;2.40;;
52530;SDS011;38441;52.894;6.040;2023-04-24T10:06:52;9.13;;;2.30;;
52530;SDS011;38441;52.894;6.040;2023-04-24T10:09:20;6.55;;;1.83;;
52530;SDS011;38441;52.894;6.040;2023-04-24T10:11:48;12.02;;;2.30;;
52530;SDS011;38441;52.894;6.040;2023-04-24T10:14:15;6.60;;;2.20;;
52530;SDS011;38441;52.894;6.040;2023-04-24T10:16:48;7.13;;;2.28;;
52530;SDS011;38441;52.894;6.040;2023-04-24T10:19:15;10.70;;;2.47;;
52530;SDS011;38441;52.894;6.040;2023-04-24T10:21:42;10.75;;;2.50;;
52530;SDS011;38441;52.894;6.040;2023-04-24T10:24:18;12.35;;;2.47;;
52530;SDS011;38441;52.894;6.040;2023-04-24T10:26:46;10.18;;;2.00;;
52530;SDS011;38441;52.894;6.040;2023-04-24T10:29:18;8.85;;;1.85;;
52530;SDS011;38441;52.894;6.040;2023-04-24T10:31:44;6.07;;;1.70;;
52530;SDS011;38441;52.894;6.040;2023-04-24T10:34:14;10.65;;;1.98;;
52530;SDS011;38441;52.894;6.040;2023-04-24T10:36:48;7.30;;;1.75;;
52530;SDS011;38441;52.894;6.040;2023-04-24T10:39:17;7.78;;;1.73;;
52530;SDS011;38441;52.894;6.040;2023-04-24T10:41:44;9.02;;;1.75;;
52530;SDS011;38441;52.894;6.040;2023-04-24T10:44:14;9.32;;;2.13;;
52530;SDS011;38441;52.894;6.040;2023-04-24T10:46:44;7.88;;;1.70;;
52530;SDS011;38441;52.894;6.040;2023-04-24T10:49:12;5.45;;;1.38;;
52530;SDS011;38441;52.894;6.040;2023-04-24T10:54:24;8.32;;;2.30;;
52530;SDS011;38441;52.894;6.040;2023-04-24T10:56:51;7.70;;;1.48;;
52530;SDS011;38441;52.894;6.040;2023-04-24T10:59:35;5.43;;;1.45;;
52530;SDS011;38441;52.894;6.040;2023-04-24T11:02:02;3.80;;;1.20;;
52530;SDS011;38441;52.894;6.040;2023-04-24T11:04:29;5.40;;;1.40;;
52530;SDS011;38441;52.894;6.040;2023-04-24T11:06:56;6.22;;;1.52;;
52530;SDS011;38441;52.894;6.040;2023-04-24T11:09:22;8.23;;;1.58;;
52530;SDS011;38441;52.894;6.040;2023-04-24T11:11:53;8.55;;;1.35;;
52530;SDS011;38441;52.894;6.040;2023-04-24T11:14:31;5.85;;;1.60;;
52530;SDS011;38441;52.894;6.040;2023-04-24T11:17:33;7.32;;;1.52;;
52530;SDS011;38441;52.894;6.040;2023-04-24T11:20:08;5.43;;;1.92;;
52530;SDS011;38441;52.894;6.040;2023-04-24T11:22:37;6.20;;;1.60;;
52530;SDS011;38441;52.894;6.040;2023-04-24T11:25:05;6.07;;;1.45;;
52530;SDS011;38441;52.894;6.040;2023-04-24T11:28:02;8.85;;;1.45;;
52530;SDS011;38441;52.894;6.040;2023-04-24T11:30:28;5.95;;;1.10;;
52530;SDS011;38441;52.894;6.040;2023-04-24T11:32:55;7.28;;;1.38;;
52530;SDS011;38441;52.894;6.040;2023-04-24T11:35:29;4.97;;;1.00;;
52530;SDS011;38441;52.894;6.040;2023-04-24T11:38:02;4.55;;;1.10;;
52530;SDS011;38441;52.894;6.040;2023-04-24T11:40:31;7.70;;;1.88;;
52530;SDS011;38441;52.894;6.040;2023-04-24T11:42:59;5.07;;;1.25;;
52530;SDS011;38441;52.894;6.040;2023-04-24T11:45:26;3.30;;;0.63;;
52530;SDS011;38441;52.894;6.040;2023-04-24T11:47:55;6.90;;;1.35;;
52530;SDS011;38441;52.894;6.040;2023-04-24T11:50:22;7.60;;;1.00;;
52530;SDS011;38441;52.894;6.040;2023-04-24T11:52:51;4.75;;;0.77;;
52530;SDS011;38441;52.894;6.040;2023-04-24T11:57:47;7.07;;;1.00;;
52530;SDS011;38441;52.894;6.040;2023-04-24T12:00:16;3.03;;;0.70;;
52530;SDS011;38441;52.894;6.040;2023-04-24T12:02:44;7.45;;;0.93;;
52530;SDS011;38441;52.894;6.040;2023-04-24T12:05:19;2.92;;;0.60;;
52530;SDS011;38441;52.894;6.040;2023-04-24T12:07:46;2.80;;;0.55;;
52530;SDS011;38441;52.894;6.040;2023-04-24T12:10:12;3.10;;;0.55;;
52530;SDS011;38441;52.894;6.040;2023-04-24T12:12:38;5.13;;;0.63;;
52530;SDS011;38441;52.894;6.040;2023-04-24T12:15:08;3.75;;;0.60;;
52530;SDS011;38441;52.894;6.040;2023-04-24T12:17:34;4.40;;;0.70;;
52530;SDS011;38441;52.894;6.040;2023-04-24T12:20:05;5.00;;;0.77;;
52530;SDS011;38441;52.894;6.040;2023-04-24T12:22:48;3.47;;;0.50;;
52530;SDS011;38441;52.894;6.040;2023-04-24T12:25:19;4.07;;;0.70;;
52530;SDS011;38441;52.894;6.040;2023-04-24T12:27:46;5.18;;;1.00;;
52530;SDS011;38441;52.894;6.040;2023-04-24T12:30:18;4.40;;;0.63;;
52530;SDS011;38441;52.894;6.040;2023-04-24T12:32:48;4.53;;;0.60;;
52530;SDS011;38441;52.894;6.040;2023-04-24T12:35:21;4.13;;;0.50;;
52530;SDS011;38441;52.894;6.040;2023-04-24T12:37:48;4.15;;;0.70;;
52530;SDS011;38441;52.894;6.040;2023-04-24T12:40:17;4.10;;;0.80;;
52530;SDS011;38441;52.894;6.040;2023-04-24T12:42:45;4.10;;;0.60;;
52530;SDS011;38441;52.894;6.040;2023-04-24T12:45:15;8.75;;;1.40;;
52530;SDS011;38441;52.894;6.040;2023-04-24T12:47:42;6.47;;;0.70;;
52530;SDS011;38441;52.894;6.040;2023-04-24T12:50:09;2.15;;;0.60;;
52530;SDS011;38441;52.894;6.040;2023-04-24T12:52:36;5.90;;;0.68;;
52530;SDS011;38441;52.894;6.040;2023-04-24T12:55:04;3.08;;;0.50;;
52530;SDS011;38441;52.894;6.040;2023-04-24T12:57:33;3.53;;;0.65;;
52530;SDS011;38441;52.894;6.040;2023-04-24T13:00:00;4.53;;;1.20;;
52530;SDS011;38441;52.894;6.040;2023-04-24T13:02:29;5.93;;;1.20;;
52530;SDS011;38441;52.894;6.040;2023-04-24T13:04:56;3.95;;;0.50;;
52530;SDS011;38441;52.894;6.040;2023-04-24T13:07:22;6.60;;;1.00;;
52530;SDS011;38441;52.894;6.040;2023-04-24T13:09:49;3.53;;;0.80;;
52530;SDS011;38441;52.894;6.040;2023-04-24T13:12:15;5.20;;;1.17;;
52530;SDS011;38441;52.894;6.040;2023-04-24T13:14:42;5.30;;;0.90;;
52530;SDS011;38441;52.894;6.040;2023-04-24T13:17:08;5.47;;;1.00;;
52530;SDS011;38441;52.894;6.040;2023-04-24T13:19:38;3.47;;;0.70;;
52530;SDS011;38441;52.894;6.040;2023-04-24T13:22:06;6.88;;;1.02;;
52530;SDS011;38441;52.894;6.040;2023-04-24T13:24:32;5.78;;;1.17;;
52530;SDS011;38441;52.894;6.040;2023-04-24T13:26:58;3.90;;;1.10;;
52530;SDS011;38441;52.894;6.040;2023-04-24T13:29:25;7.05;;;1.20;;
52530;SDS011;38441;52.894;6.040;2023-04-24T13:31:51;7.30;;;1.13;;
52530;SDS011;38441;52.894;6.040;2023-04-24T13:34:19;5.95;;;1.10;;
52530;SDS011;38441;52.894;6.040;2023-04-24T13:36:45;5.72;;;1.42;;
52530;SDS011;38441;52.894;6.040;2023-04-24T13:39:11;9.98;;;1.63;;
52530;SDS011;38441;52.894;6.040;2023-04-24T13:41:37;7.88;;;1.40;;
52530;SDS011;38441;52.894;6.040;2023-04-24T13:44:04;9.68;;;1.60;;
52530;SDS011;38441;52.894;6.040;2023-04-24T13:46:30;11.40;;;1.95;;
52530;SDS011;38441;52.894;6.040;2023-04-24T13:48:56;7.43;;;1.08;;
52530;SDS011;38441;52.894;6.040;2023-04-24T13:51:22;9.32;;;1.88;;
52530;SDS011;38441;52.894;6.040;2023-04-24T13:53:48;6.57;;;1.35;;
52530;SDS011;38441;52.894;6.040;2023-04-24T13:56:14;8.40;;;1.60;;
52530;SDS011;38441;52.894;6.040;2023-04-24T13:58:41;10.63;;;1.90;;
52530;SDS011;38441;52.894;6.040;2023-04-24T14:01:06;9.02;;;1.98;;
52530;SDS011;38441;52.894;6.040;2023-04-24T14:03:33;10.75;;;1.65;;
52530;SDS011;38441;52.894;6.040;2023-04-24T14:05:59;7.25;;;2.08;;
52530;SDS011;38441;52.894;6.040;2023-04-24T14:08:25;8.88;;;2.40;;
52530;SDS011;38441;52.894;6.040;2023-04-24T14:10:51;13.95;;;2.10;;
52530;SDS011;38441;52.894;6.040;2023-04-24T14:13:17;9.43;;;1.75;;
52530;SDS011;38441;52.894;6.040;2023-04-24T14:15:43;11.45;;;2.20;;
52530;SDS011;38441;52.894;6.040;2023-04-24T14:18:09;9.80;;;2.25;;
52530;SDS011;38441;52.894;6.040;2023-04-24T14:20:35;6.18;;;1.38;;
52530;SDS011;38441;52.894;6.040;2023-04-24T14:23:01;8.52;;;2.38;;
52530;SDS011;38441;52.894;6.040;2023-04-24T14:25:27;8.85;;;1.45;;
52530;SDS011;38441;52.894;6.040;2023-04-24T14:27:53;6.85;;;1.60;;
52530;SDS011;38441;52.894;6.040;2023-04-24T14:30:19;10.40;;;1.90;;
52530;SDS011;38441;52.894;6.040;2023-04-24T14:32:45;6.07;;;1.50;;
52530;SDS011;38441;52.894;6.040;2023-04-24T14:35:12;8.20;;;1.63;;
52530;SDS011;38441;52.894;6.040;2023-04-24T14:37:38;10.68;;;1.95;;
52530;SDS011;38441;52.894;6.040;2023-04-24T14:40:06;11.48;;;1.83;;
52530;SDS011;38441;52.894;6.040;2023-04-24T14:42:33;10.05;;;1.95;;
52530;SDS011;38441;52.894;6.040;2023-04-24T14:44:59;7.03;;;1.65;;
52530;SDS011;38441;52.894;6.040;2023-04-24T14:47:25;9.95;;;1.80;;
52530;SDS011;38441;52.894;6.040;2023-04-24T14:49:51;8.50;;;1.90;;
52530;SDS011;38441;52.894;6.040;2023-04-24T14:52:17;7.15;;;1.55;;
52530;SDS011;38441;52.894;6.040;2023-04-24T14:54:43;8.02;;;1.95;;
52530;SDS011;38441;52.894;6.040;2023-04-24T14:57:09;7.03;;;1.83;;
52530;SDS011;38441;52.894;6.040;2023-04-24T14:59:35;8.90;;;2.15;;
52530;SDS011;38441;52.894;6.040;2023-04-24T15:02:01;5.68;;;1.63;;
52530;SDS011;38441;52.894;6.040;2023-04-24T15:04:28;3.60;;;1.10;;
52530;SDS011;38441;52.894;6.040;2023-04-24T15:06:56;7.15;;;1.70;;
52530;SDS011;38441;52.894;6.040;2023-04-24T15:09:22;9.70;;;1.70;;
52530;SDS011;38441;52.894;6.040;2023-04-24T15:11:50;7.70;;;2.50;;
52530;SDS011;38441;52.894;6.040;2023-04-24T15:14:16;9.80;;;2.72;;
52530;SDS011;38441;52.894;6.040;2023-04-24T15:16:42;10.75;;;2.22;;
52530;SDS011;38441;52.894;6.040;2023-04-24T15:19:08;14.60;;;2.97;;
52530;SDS011;38441;52.894;6.040;2023-04-24T15:21:37;11.20;;;2.40;;
52530;SDS011;38441;52.894;6.040;2023-04-24T15:24:05;6.88;;;1.65;;
52530;SDS011;38441;52.894;6.040;2023-04-24T15:26:31;8.50;;;2.20;;
52530;SDS011;38441;52.894;6.040;2023-04-24T15:28:56;7.45;;;2.20;;
52530;SDS011;38441;52.894;6.040;2023-04-24T15:31:22;3.50;;;1.40;;
52530;SDS011;38441;52.894;6.040;2023-04-24T15:33:49;6.97;;;1.77;;
52530;SDS011;38441;52.894;6.040;2023-04-24T15:36:15;11.43;;;2.70;;
52530;SDS011;38441;52.894;6.040;2023-04-24T15:38:42;9.10;;;2.15;;
52530;SDS011;38441;52.894;6.040;2023-04-24T15:41:08;9.57;;;2.10;;
52530;SDS011;38441;52.894;6.040;2023-04-24T15:43:34;7.53;;;2.10;;
52530;SDS011;38441;52.894;6.040;2023-04-24T15:46:00;9.13;;;2.25;;
52530;SDS011;38441;52.894;6.040;2023-04-24T15:48:27;9.10;;;2.53;;
52530;SDS011;38441;52.894;6.040;2023-04-24T15:50:53;9.60;;;2.10;;
52530;SDS011;38441;52.894;6.040;2023-04-24T15:53:19;11.75;;;3.20;;
52530;SDS011;38441;52.894;6.040;2023-04-24T15:55:49;8.15;;;2.38;;
52530;SDS011;38441;52.894;6.040;2023-04-24T15:58:15;13.65;;;3.10;;
52530;SDS011;38441;52.894;6.040;2023-04-24T16:00:42;13.50;;;3.05;;
52530;SDS011;38441;52.894;6.040;2023-04-24T16:03:08;11.55;;;2.85;;
52530;SDS011;38441;52.894;6.040;2023-04-24T16:05:34;9.52;;;2.90;;
52530;SDS011;38441;52.894;6.040;2023-04-24T16:08:00;7.75;;;2.22;;
52530;SDS011;38441;52.894;6.040;2023-04-24T16:10:26;11.15;;;2.45;;
52530;SDS011;38441;52.894;6.040;2023-04-24T16:12:52;12.40;;;2.40;;
52530;SDS011;38441;52.894;6.040;2023-04-24T16:15:21;6.72;;;2.42;;
52530;SDS011;38441;52.894;6.040;2023-04-24T16:17:48;13.35;;;2.55;;
52530;SDS011;38441;52.894;6.040;2023-04-24T16:20:14;11.18;;;2.95;;
52530;SDS011;38441;52.894;6.040;2023-04-24T16:22:40;13.32;;;2.83;;
52530;SDS011;38441;52.894;6.040;2023-04-24T16:25:06;13.20;;;3.10;;
52530;SDS011;38441;52.894;6.040;2023-04-24T16:27:33;11.27;;;3.13;;
52530;SDS011;38441;52.894;6.040;2023-04-24T16:29:59;9.40;;;2.92;;